Terminal Aerodrome Forecast
Issued by NWS

Home | Current Version | Previous Version | Text Only | Print | Product List | Glossary On
Versions: 1 2 3 4 5 6 7 8 9 10 11 12 13
000
FTUS45 KTFX 301731
TAFBZN
TAF
KBZN 301731Z 3018/0118 VRB06KT P6SM SKC
     FM302200 32010G22KT P6SM SCT080
     FM010100 33006KT P6SM SKC=

USA.gov is the U.S. government's official web portal to all federal, state and local government web resources and services.